Time;durP1;ratioP1;P1;durP2;ratioP2;P2;SDS_P1;SDS_P2;PMS_P1;PMS_P2;Temp;Humidity;BMP_temperature;BMP_pressure;BME280_temperature;BME280_humidity;BME280_pressure;Samples;Min_cycle;Max_cycle;Signal;HPM_P1;HPM_P2
2022/03/31 00:00:58;;;;;;;19.50;17.20;;;6.90;1.00;7.50;98906.00;;;;5016740;28;20474;-79
2022/03/31 00:03:27;;;;;;;19.10;16.97;;;7.20;1.00;7.50;98908.00;;;;5003344;28;21007;-80
2022/03/31 00:05:55;;;;;;;19.00;16.97;;;7.10;1.00;7.40;98900.00;;;;5002304;28;20486;-80
2022/03/31 00:08:24;;;;;;;19.43;16.83;;;7.00;1.00;7.40;98902.00;;;;5002916;28;20552;-80
2022/03/31 00:10:55;;;;;;;19.77;17.67;;;7.00;1.00;7.40;98906.00;;;;5000918;28;20467;-80
2022/03/31 00:13:26;;;;;;;20.50;17.73;;;7.00;1.00;7.30;98900.00;;;;4999596;28;20566;-80
2022/03/31 00:15:58;;;;;;;22.07;18.73;;;6.90;1.00;7.30;98890.00;;;;4999556;28;20558;-80
2022/03/31 00:18:29;;;;;;;19.63;17.47;;;7.10;1.00;7.20;98896.00;;;;4998564;28;20503;-79
2022/03/31 00:20:58;;;;;;;20.40;17.70;;;6.90;1.00;7.20;98905.00;;;;5000084;28;20506;-79
2022/03/31 00:23:28;;;;;;;22.10;17.87;;;6.80;1.00;7.10;98900.00;;;;4999706;28;20477;-79
2022/03/31 00:25:56;;;;;;;20.30;17.90;;;6.80;1.00;7.00;98906.00;;;;5001236;28;20502;-79
2022/03/31 00:28:26;;;;;;;21.80;17.83;;;6.70;1.00;7.00;98908.00;;;;5008092;28;20538;-79
2022/03/31 00:30:54;;;;;;;20.37;17.47;;;6.60;1.00;6.90;98902.00;;;;5011058;28;20459;-79
2022/03/31 00:33:24;;;;;;;20.30;16.90;;;6.50;1.00;6.80;98905.00;;;;5010336;28;20480;-78
2022/03/31 00:35:52;;;;;;;24.47;18.50;;;6.50;1.00;6.80;98891.00;;;;5004893;28;20470;-78
2022/03/31 00:38:21;;;;;;;21.13;17.70;;;6.40;1.00;6.80;98902.00;;;;5008937;28;20502;-79
2022/03/31 00:40:49;;;;;;;18.70;15.90;;;6.40;1.00;6.80;98893.00;;;;5025302;28;21243;-79
2022/03/31 00:43:17;;;;;;;20.33;16.37;;;6.50;1.00;6.70;98889.00;;;;5009438;28;20476;-79
2022/03/31 00:45:50;;;;;;;23.10;17.83;;;6.40;1.00;6.70;98892.00;;;;5023527;28;20467;-79
2022/03/31 00:48:20;;;;;;;20.70;17.60;;;6.30;1.00;6.70;98890.00;;;;5010053;28;20541;-79
2022/03/31 00:50:50;;;;;;;20.53;17.70;;;6.30;1.00;6.70;98888.00;;;;5013475;28;20461;-78
2022/03/31 00:53:18;;;;;;;20.80;17.63;;;6.30;1.00;6.70;98887.00;;;;5011983;28;20455;-79
2022/03/31 00:55:58;;;;;;;23.70;17.90;;;6.30;1.00;6.70;98893.00;;;;5010439;28;20512;-79
2022/03/31 00:58:27;;;;;;;21.53;17.80;;;6.30;1.00;6.70;98877.00;;;;5014420;28;20441;-79
2022/03/31 01:00:55;;;;;;;20.30;17.47;;;6.30;1.00;6.70;98869.00;;;;5015635;28;20481;-80
2022/03/31 01:03:24;;;;;;;21.47;17.57;;;6.40;1.00;6.80;98880.00;;;;5016475;28;20450;-80
2022/03/31 01:05:55;;;;;;;19.93;17.23;;;6.40;1.00;6.90;98868.00;;;;5032361;28;20466;-79
2022/03/31 01:08:24;;;;;;;21.90;18.80;;;6.50;1.00;6.90;98872.00;;;;5007450;28;20489;-78
2022/03/31 01:10:53;;;;;;;23.63;18.40;;;6.60;1.00;7.00;98860.00;;;;5018417;28;20451;-79
2022/03/31 01:13:21;;;;;;;22.17;18.23;;;6.70;1.00;7.10;98856.00;;;;5022076;28;20466;-79
2022/03/31 01:15:49;;;;;;;23.00;18.70;;;6.80;1.00;7.20;98839.00;;;;5015850;28;20477;-79
2022/03/31 01:18:18;;;;;;;21.03;16.80;;;6.90;1.00;7.20;98846.00;;;;5021589;28;20452;-78
2022/03/31 01:20:46;;;;;;;24.37;19.20;;;6.90;1.00;7.30;98838.00;;;;4997738;28;20455;-79
2022/03/31 01:23:16;;;;;;;24.10;18.93;;;6.90;1.00;7.30;98847.00;;;;5008023;28;20492;-79
2022/03/31 01:25:45;;;;;;;23.13;17.97;;;7.00;1.00;7.40;98845.00;;;;5014046;28;20501;-79
2022/03/31 01:28:13;;;;;;;21.70;18.00;;;7.00;1.00;7.40;98845.00;;;;5014279;28;20451;-78
2022/03/31 01:30:41;;;;;;;20.97;16.90;;;7.10;1.00;7.40;98834.00;;;;5003502;28;20542;-79
2022/03/31 01:33:11;;;;;;;24.13;17.70;;;7.10;1.00;7.40;98839.00;;;;5001299;28;21078;-78
2022/03/31 01:35:39;;;;;;;20.87;18.03;;;7.10;1.00;7.40;98824.00;;;;5006213;28;20517;-79
2022/03/31 01:38:08;;;;;;;19.77;16.10;;;7.10;1.00;7.40;98827.00;;;;5009991;28;20468;-79
2022/03/31 01:40:38;;;;;;;22.37;16.87;;;7.00;1.00;7.40;98824.00;;;;5021900;28;20441;-77
2022/03/31 01:43:07;;;;;;;23.37;17.87;;;7.10;1.00;7.40;98839.00;;;;4987506;28;20498;-79
2022/03/31 01:45:37;;;;;;;23.30;17.60;;;7.10;1.00;7.50;98828.00;;;;5003921;28;20474;-79
2022/03/31 01:48:06;;;;;;;22.70;18.13;;;7.20;1.00;7.50;98826.00;;;;5007212;28;20477;-78
2022/03/31 01:50:35;;;;;;;20.57;15.73;;;7.20;1.00;7.50;98834.00;;;;5005325;28;20943;-79
2022/03/31 01:53:04;;;;;;;23.93;16.97;;;7.20;1.00;7.50;98818.00;;;;5003651;28;20465;-79
2022/03/31 01:55:33;;;;;;;21.23;16.60;;;7.20;1.00;7.50;98831.00;;;;5004053;28;20474;-78
2022/03/31 01:58:03;;;;;;;18.87;15.20;;;7.20;1.00;7.50;98839.00;;;;5023247;28;20533;-79
2022/03/31 02:00:31;;;;;;;19.10;15.47;;;7.20;1.00;7.40;98826.00;;;;5017811;28;20469;-79
2022/03/31 02:03:00;;;;;;;20.20;15.70;;;7.10;1.00;7.30;98826.00;;;;5015098;28;20528;-79
2022/03/31 02:05:28;;;;;;;19.73;15.10;;;6.80;1.00;7.30;98824.00;;;;5018524;28;20478;-79
2022/03/31 02:07:57;;;;;;;21.17;15.80;;;7.00;1.00;7.30;98819.00;;;;5018817;28;20751;-79
2022/03/31 02:10:26;;;;;;;23.90;16.13;;;7.00;1.00;7.20;98828.00;;;;5031017;28;20439;-79
2022/03/31 02:12:55;;;;;;;22.07;16.50;;;6.90;1.00;7.20;98819.00;;;;5024936;28;20433;-79
2022/03/31 02:15:25;;;;;;;19.83;15.83;;;6.90;1.00;7.20;98816.00;;;;5016255;28;20462;-79
2022/03/31 02:17:55;;;;;;;20.60;16.10;;;6.90;1.00;7.10;98809.00;;;;5004583;28;20474;-79
2022/03/31 02:20:24;;;;;;;22.60;17.47;;;6.80;1.00;7.10;98794.00;;;;5015906;28;20449;-79
2022/03/31 02:22:52;;;;;;;22.37;16.30;;;6.70;1.00;7.10;98802.00;;;;5020994;28;20497;-79
2022/03/31 02:25:21;;;;;;;21.30;16.23;;;6.80;1.00;7.10;98806.00;;;;5024415;28;20602;-78
2022/03/31 02:27:52;;;;;;;21.33;17.00;;;6.80;1.00;7.10;98808.00;;;;5017744;28;20569;-79
2022/03/31 02:30:22;;;;;;;22.20;16.50;;;6.80;1.00;7.10;98788.00;;;;5020852;28;20445;-78
2022/03/31 02:32:52;;;;;;;22.10;17.13;;;6.80;1.00;7.20;98784.00;;;;5022244;28;20475;-78
2022/03/31 02:35:20;;;;;;;21.23;16.20;;;6.80;1.00;7.20;98786.00;;;;5028759;28;20492;-79
2022/03/31 02:37:49;;;;;;;21.60;16.60;;;6.80;1.00;7.20;98778.00;;;;5031734;28;20469;-79
2022/03/31 02:40:17;;;;;;;22.40;16.37;;;6.80;1.00;7.30;98788.00;;;;5027778;28;20462;-79
2022/03/31 02:42:46;;;;;;;21.17;16.40;;;6.90;1.00;7.30;98796.00;;;;5025796;28;20478;-79
2022/03/31 02:45:14;;;;;;;20.00;16.00;;;7.00;1.00;7.30;98778.00;;;;5022489;28;20509;-79
2022/03/31 02:47:45;;;;;;;22.30;17.30;;;7.00;1.00;7.30;98792.00;;;;5021518;28;20458;-79
2022/03/31 02:50:15;;;;;;;23.70;16.67;;;7.00;1.00;7.30;98782.00;;;;5002747;28;20459;-79
2022/03/31 02:55:30;;;;;;;22.07;16.97;;;7.10;1.00;7.30;98771.00;;;;4998312;28;20492;-78
2022/03/31 02:58:02;;;;;;;23.00;18.20;;;7.00;1.00;7.30;98776.00;;;;5000584;28;20554;-78
2022/03/31 03:00:33;;;;;;;23.43;17.70;;;6.90;1.00;7.20;98768.00;;;;5000935;28;20459;-79
2022/03/31 03:03:03;;;;;;;22.60;16.90;;;6.90;1.00;7.10;98757.00;;;;4999721;28;20474;-79
2022/03/31 03:05:34;;;;;;;23.67;16.47;;;6.80;1.00;7.10;98761.00;;;;5015180;28;21169;-79
2022/03/31 03:08:03;;;;;;;19.47;15.60;;;6.80;1.00;7.10;98770.00;;;;5000261;28;20493;-79
2022/03/31 03:10:32;;;;;;;20.40;16.37;;;6.80;1.00;7.10;98749.00;;;;5001932;28;20463;-78
2022/03/31 03:13:00;;;;;;;22.30;17.60;;;6.70;1.00;7.00;98763.00;;;;4998280;28;20464;-79
2022/03/31 03:15:28;;;;;;;21.23;16.50;;;6.70;1.00;7.10;98750.00;;;;5001250;28;20482;-79
2022/03/31 03:17:57;;;;;;;23.20;17.47;;;6.80;1.00;7.00;98744.00;;;;4998300;28;20454;-79
2022/03/31 03:20:25;;;;;;;22.50;17.47;;;7.00;1.00;7.10;98746.00;;;;4999997;28;20447;-79
2022/03/31 03:22:55;;;;;;;22.77;15.40;;;6.70;1.00;7.10;98752.00;;;;4999242;28;20792;-80
2022/03/31 03:25:24;;;;;;;20.57;16.00;;;6.80;1.00;7.10;98754.00;;;;4994297;28;20482;-79
2022/03/31 03:27:53;;;;;;;25.13;16.43;;;6.70;1.00;7.10;98738.00;;;;4996355;28;20459;-80
2022/03/31 03:30:22;;;;;;;23.83;16.73;;;6.70;1.00;7.00;98747.00;;;;4997918;28;20454;-79
2022/03/31 03:32:51;;;;;;;24.50;17.50;;;6.70;1.00;6.90;98730.00;;;;4997034;28;20467;-79
2022/03/31 03:35:19;;;;;;;21.20;16.57;;;6.60;1.00;6.90;98741.00;;;;4996189;28;20470;-79
2022/03/31 03:37:48;;;;;;;22.93;17.37;;;6.60;1.00;6.90;98743.00;;;;4997437;28;20449;-79
2022/03/31 03:40:18;;;;;;;25.10;18.23;;;6.60;1.00;6.90;98731.00;;;;4981998;28;20480;-80
2022/03/31 03:42:46;;;;;;;21.97;16.20;;;6.60;1.00;6.80;98735.00;;;;5003172;28;20477;-80
2022/03/31 03:45:15;;;;;;;23.87;18.17;;;6.60;1.00;6.80;98727.00;;;;5009759;28;20475;-79
2022/03/31 03:47:44;;;;;;;24.33;19.00;;;6.50;1.00;6.80;98719.00;;;;5010772;28;20461;-79
2022/03/31 03:50:13;;;;;;;22.60;17.70;;;6.50;1.00;6.80;98723.00;;;;5008460;28;20469;-79
2022/03/31 03:52:41;;;;;;;22.90;17.60;;;6.50;1.00;6.80;98712.00;;;;5006988;28;20458;-79
2022/03/31 03:55:10;;;;;;;24.13;17.93;;;6.50;1.00;6.80;98727.00;;;;5006409;28;20489;-79
2022/03/31 03:57:41;;;;;;;23.77;18.40;;;6.50;1.00;6.80;98707.00;;;;5009910;28;20442;-78
2022/03/31 04:00:11;;;;;;;26.20;19.07;;;6.50;1.00;6.80;98707.00;;;;5000508;28;20453;-79
2022/03/31 04:02:41;;;;;;;21.87;17.10;;;6.50;1.00;6.80;98708.00;;;;4996677;28;20478;-79
2022/03/31 04:05:10;;;;;;;21.37;16.43;;;6.50;1.00;6.80;98703.00;;;;4996103;28;20483;-79
2022/03/31 04:07:38;;;;;;;23.60;17.30;;;6.50;1.00;6.70;98707.00;;;;4995458;28;20493;-79
2022/03/31 04:10:09;;;;;;;23.33;17.57;;;6.40;1.00;6.70;98692.00;;;;5000846;28;20477;-79
2022/03/31 04:12:38;;;;;;;22.23;17.30;;;6.40;1.00;6.70;98697.00;;;;4997317;28;20469;-79
2022/03/31 04:15:10;;;;;;;21.53;16.80;;;6.30;1.00;6.60;98693.00;;;;5000567;28;20553;-79
2022/03/31 04:17:38;;;;;;;21.87;18.13;;;6.30;1.00;6.60;98672.00;;;;4996673;28;20465;-79
2022/03/31 04:20:08;;;;;;;24.23;17.00;;;6.30;1.00;6.50;98691.00;;;;4998737;28;20814;-80
2022/03/31 04:22:37;;;;;;;23.33;18.33;;;6.20;1.00;6.50;98693.00;;;;4994621;28;20459;-80
2022/03/31 04:25:07;;;;;;;21.27;17.30;;;6.10;1.00;6.40;98690.00;;;;4997301;28;20803;-80
2022/03/31 04:27:37;;;;;;;25.00;19.03;;;6.10;1.00;6.40;98689.00;;;;4995620;28;20497;-80
2022/03/31 04:30:10;;;;;;;27.10;19.83;;;6.10;1.00;6.30;98691.00;;;;4995880;28;20911;-80
2022/03/31 04:32:39;;;;;;;25.47;17.97;;;6.00;1.00;6.40;98697.00;;;;4997698;28;20960;-78
2022/03/31 04:35:10;;;;;;;25.77;19.40;;;6.00;1.00;6.30;98689.00;;;;5010026;28;20466;-79
2022/03/31 04:37:39;;;;;;;25.00;18.37;;;6.00;1.00;6.30;98686.00;;;;4995263;28;20738;-79
2022/03/31 04:40:09;;;;;;;24.20;17.50;;;5.90;1.00;6.20;98687.00;;;;4995801;28;20466;-80
2022/03/31 04:42:38;;;;;;;27.50;17.73;;;5.90;1.00;6.20;98681.00;;;;4994482;28;20483;-79
2022/03/31 04:45:09;;;;;;;24.37;17.70;;;5.90;1.00;6.30;98671.00;;;;4998379;28;20482;-80
2022/03/31 04:47:38;;;;;;;25.50;19.80;;;5.90;1.00;6.30;98672.00;;;;4977786;28;21472;-78
2022/03/31 04:50:12;;;;;;;27.10;17.07;;;5.90;1.00;6.30;98668.00;;;;4996074;28;20530;-78
2022/03/31 04:52:41;;;;;;;27.57;18.43;;;6.10;1.00;6.40;98692.00;;;;4994181;28;20487;-80
2022/03/31 04:55:14;;;;;;;26.07;18.20;;;6.00;1.00;6.30;98691.00;;;;4995213;28;20491;-79
2022/03/31 04:57:42;;;;;;;23.87;17.70;;;5.90;1.00;6.20;98665.00;;;;4995159;28;20457;-79
2022/03/31 05:00:14;;;;;;;24.60;18.23;;;5.90;1.00;6.20;98664.00;;;;4998037;28;20458;-79
2022/03/31 05:02:42;;;;;;;22.87;18.03;;;5.80;1.00;6.10;98672.00;;;;5002680;28;20453;-81
2022/03/31 05:05:12;;;;;;;23.73;18.20;;;5.80;1.00;6.30;98697.00;;;;5025437;28;20497;-82
2022/03/31 05:07:41;;;;;;;28.60;19.67;;;5.80;1.00;6.20;98683.00;;;;5007231;28;20510;-79
2022/03/31 05:10:10;;;;;;;31.50;19.07;;;5.90;1.00;6.30;98682.00;;;;5000013;28;20453;-80
2022/03/31 05:12:38;;;;;;;24.67;18.07;;;6.00;1.00;6.40;98689.00;;;;4999770;28;20465;-80
2022/03/31 05:15:08;;;;;;;27.27;19.03;;;6.00;1.00;6.40;98692.00;;;;4998762;28;21008;-80
2022/03/31 05:17:38;;;;;;;28.40;19.30;;;6.10;1.00;6.40;98677.00;;;;5001722;28;20470;-80
2022/03/31 05:20:09;;;;;;;25.33;19.80;;;6.10;1.00;6.40;98688.00;;;;5001371;28;20462;-81
2022/03/31 05:22:39;;;;;;;27.60;20.40;;;6.10;1.00;6.50;98687.00;;;;5001274;28;20474;-80
2022/03/31 05:25:10;;;;;;;31.23;21.03;;;6.20;1.00;6.40;98687.00;;;;4999677;28;20481;-79
2022/03/31 05:27:43;;;;;;;27.23;20.73;;;6.20;1.00;6.50;98692.00;;;;4994786;28;20453;-78
2022/03/31 05:30:13;;;;;;;31.30;21.60;;;6.20;1.00;6.50;98677.00;;;;4998643;28;20875;-79
2022/03/31 05:32:43;;;;;;;27.37;21.53;;;6.20;1.00;6.50;98682.00;;;;5002581;28;20975;-81
2022/03/31 05:35:13;;;;;;;31.77;21.13;;;6.20;1.00;6.60;98684.00;;;;4998240;28;20481;-80
2022/03/31 05:37:42;;;;;;;24.13;18.77;;;6.30;1.00;6.70;98695.00;;;;5002098;28;20577;-79
2022/03/31 05:40:13;;;;;;;27.10;20.77;;;6.30;1.00;6.70;98711.00;;;;4996933;28;20466;-80
2022/03/31 05:42:42;;;;;;;25.60;20.07;;;6.40;1.00;6.70;98688.00;;;;5005657;28;20442;-79
2022/03/31 05:45:13;;;;;;;25.07;18.60;;;6.50;1.00;6.80;98708.00;;;;5019824;28;20549;-80
2022/03/31 05:47:45;;;;;;;21.47;16.70;;;6.30;1.00;6.70;98701.00;;;;5020764;28;20451;-80
2022/03/31 05:50:14;;;;;;;24.57;18.47;;;6.50;1.00;6.50;98694.00;;;;5002314;28;20483;-80
2022/03/31 05:52:43;;;;;;;28.40;18.97;;;6.40;1.00;6.60;98707.00;;;;5008123;28;20442;-79
2022/03/31 05:55:14;;;;;;;23.57;17.90;;;6.40;1.00;6.50;98713.00;;;;5012907;28;20482;-82
2022/03/31 05:57:42;;;;;;;25.47;18.80;;;6.40;1.00;6.60;98687.00;;;;5006862;28;20462;-79
2022/03/31 06:00:17;;;;;;;26.37;16.83;;;6.30;1.00;6.70;98695.00;;;;5011552;28;20444;-78
2022/03/31 06:02:47;;;;;;;33.43;19.63;;;6.40;1.00;6.70;98696.00;;;;4993382;28;20455;-81
2022/03/31 06:05:21;;;;;;;23.80;18.33;;;6.40;1.00;6.70;98702.00;;;;5005487;28;20485;-79
2022/03/31 06:07:51;;;;;;;25.30;17.97;;;6.50;1.00;6.80;98708.00;;;;5004642;28;20474;-80
2022/03/31 06:10:21;;;;;;;20.93;16.03;;;6.70;1.00;6.80;98717.00;;;;5006634;28;20446;-80
2022/03/31 06:12:50;;;;;;;25.63;18.70;;;6.60;1.00;6.90;98708.00;;;;5009232;28;20521;-80
2022/03/31 06:15:18;;;;;;;24.80;18.07;;;6.60;1.00;6.90;98689.00;;;;4999685;28;20556;-80
2022/03/31 06:17:48;;;;;;;24.57;16.90;;;6.70;1.00;7.00;98702.00;;;;5000488;28;20455;-80
2022/03/31 06:20:16;;;;;;;25.50;17.87;;;6.70;1.00;7.00;98698.00;;;;4999419;28;20950;-79
2022/03/31 06:22:44;;;;;;;24.43;19.13;;;6.70;1.00;6.90;98703.00;;;;4995244;28;20557;-78
2022/03/31 06:25:14;;;;;;;26.40;18.83;;;6.60;1.00;7.00;98684.00;;;;5012012;28;20518;-79
2022/03/31 06:27:47;;;;;;;28.20;16.93;;;6.70;1.00;7.10;98710.00;;;;5003603;28;20503;-79
2022/03/31 06:30:16;;;;;;;22.93;17.97;;;6.80;1.00;7.30;98698.00;;;;5008880;28;20635;-80
2022/03/31 06:32:47;;;;;;;24.00;18.10;;;7.00;1.00;7.40;98692.00;;;;5008097;28;20519;-79
2022/03/31 06:35:16;;;;;;;24.40;19.17;;;7.10;1.00;7.60;98679.00;;;;5008707;28;20445;-78
2022/03/31 06:37:45;;;;;;;24.20;17.77;;;7.30;1.00;7.60;98687.00;;;;5003704;28;20450;-79
2022/03/31 06:40:15;;;;;;;25.27;18.83;;;7.40;1.00;7.60;98679.00;;;;5006307;28;20538;-78
2022/03/31 06:42:46;;;;;;;20.17;15.80;;;7.40;1.00;7.60;98690.00;;;;5008031;28;20450;-79
2022/03/31 06:45:16;;;;;;;23.70;18.07;;;7.40;1.00;7.60;98679.00;;;;5003935;28;20533;-80
2022/03/31 06:47:57;;;;;;;23.97;17.80;;;7.50;1.00;7.70;98681.00;;;;5010469;28;20464;-79
2022/03/31 06:50:31;;;;;;;22.80;16.43;;;7.40;1.00;7.80;98675.00;;;;5008739;28;21136;-80
2022/03/31 06:53:00;;;;;;;24.80;17.77;;;7.50;1.00;7.90;98663.00;;;;5005692;28;21141;-79
2022/03/31 06:55:28;;;;;;;22.27;17.10;;;7.60;1.00;8.00;98690.00;;;;5007288;28;20492;-78
2022/03/31 06:57:57;;;;;;;22.20;18.40;;;7.80;1.00;8.00;98676.00;;;;5023491;28;20497;-79
2022/03/31 07:00:26;;;;;;;24.90;18.67;;;7.80;1.00;8.00;98679.00;;;;5006552;28;20459;-78
2022/03/31 07:02:56;;;;;;;22.60;18.80;;;7.90;1.00;7.90;98676.00;;;;5004986;28;20446;-79
2022/03/31 07:05:24;;;;;;;22.10;17.33;;;7.70;1.00;7.90;98679.00;;;;4995720;28;20536;-80
2022/03/31 07:07:53;;;;;;;21.73;16.73;;;7.70;1.00;7.90;98683.00;;;;5016778;28;20475;-80
2022/03/31 07:10:21;;;;;;;24.53;18.37;;;7.70;1.00;8.00;98683.00;;;;5002660;28;21016;-80
2022/03/31 07:12:50;;;;;;;27.20;18.50;;;7.80;1.00;8.00;98681.00;;;;5002312;28;20536;-79
2022/03/31 07:15:19;;;;;;;22.30;16.33;;;8.10;1.00;7.90;98665.00;;;;5001397;28;20532;-79
2022/03/31 07:17:47;;;;;;;21.90;17.50;;;7.70;1.00;7.80;98683.00;;;;4998399;28;20450;-79
2022/03/31 07:20:17;;;;;;;22.83;16.90;;;7.60;1.00;7.90;98680.00;;;;4998244;28;20458;-78
2022/03/31 07:22:47;;;;;;;27.93;18.00;;;7.60;1.00;8.00;98673.00;;;;5014573;28;21426;-79
2022/03/31 07:25:16;;;;;;;23.07;16.43;;;7.70;1.00;8.10;98671.00;;;;4995078;28;20652;-78
2022/03/31 07:27:45;;;;;;;24.47;17.43;;;7.80;1.00;8.20;98664.00;;;;5003707;28;20450;-79
2022/03/31 07:30:16;;;;;;;24.10;16.90;;;7.90;1.00;8.40;98663.00;;;;4998798;28;20455;-79
2022/03/31 07:32:50;;;;;;;21.37;16.93;;;8.10;1.00;8.40;98669.00;;;;4995013;28;20470;-79
2022/03/31 07:35:21;;;;;;;22.13;16.90;;;8.20;1.00;8.50;98664.00;;;;4996196;28;20859;-79
2022/03/31 07:37:51;;;;;;;26.80;16.90;;;8.30;1.00;8.40;98668.00;;;;4996179;28;20451;-79
2022/03/31 07:40:20;;;;;;;26.10;17.20;;;8.40;1.00;8.40;98651.00;;;;5005096;28;20451;-80
2022/03/31 07:42:48;;;;;;;23.20;17.67;;;8.20;1.00;8.40;98669.00;;;;4993063;28;20526;-79
2022/03/31 07:45:17;;;;;;;21.80;17.10;;;8.10;1.00;8.40;98639.00;;;;5012094;28;20545;-78
2022/03/31 07:47:46;;;;;;;24.47;17.47;;;8.10;1.00;8.50;98635.00;;;;5008275;28;21121;-79
2022/03/31 07:50:19;;;;;;;24.23;17.87;;;8.30;1.00;8.60;98656.00;;;;5010366;28;20463;-82
2022/03/31 07:52:48;;;;;;;24.00;17.17;;;8.30;1.00;8.60;98656.00;;;;5005356;28;21025;-80
2022/03/31 07:55:19;;;;;;;22.43;16.80;;;8.60;1.00;8.70;98661.00;;;;5008755;28;20509;-79
2022/03/31 07:57:49;;;;;;;25.07;18.70;;;8.40;1.00;8.80;98652.00;;;;5008896;28;20441;-79
2022/03/31 08:00:20;;;;;;;24.20;16.60;;;8.60;1.00;8.70;98651.00;;;;4998589;28;20454;-78
2022/03/31 08:02:51;;;;;;;21.70;17.67;;;8.50;1.00;8.70;98659.00;;;;5002662;28;20470;-79
2022/03/31 08:05:24;;;;;;;23.10;17.63;;;8.50;1.00;8.90;98646.00;;;;5001186;28;20493;-79
2022/03/31 08:07:53;;;;;;;25.13;17.73;;;8.60;1.00;9.00;98656.00;;;;5010925;28;20533;-79
2022/03/31 08:10:23;;;;;;;23.50;17.07;;;8.70;1.00;9.10;98651.00;;;;5010827;28;20482;-81
2022/03/31 08:12:52;;;;;;;23.07;17.67;;;8.90;1.00;9.10;98649.00;;;;5009746;28;20463;-78
2022/03/31 08:15:22;;;;;;;21.30;16.50;;;8.90;1.00;9.10;98650.00;;;;5003125;28;20483;-79
2022/03/31 08:17:51;;;;;;;24.67;17.97;;;9.00;1.00;9.20;98655.00;;;;5003149;28;20473;-79
2022/03/31 08:20:21;;;;;;;27.13;18.93;;;9.00;1.00;9.20;98657.00;;;;4997037;28;20462;-80
2022/03/31 08:22:49;;;;;;;26.83;18.53;;;8.90;1.00;9.10;98656.00;;;;4989029;28;20445;-80
2022/03/31 08:25:18;;;;;;;25.27;18.10;;;8.90;1.00;9.20;98654.00;;;;5000739;28;20473;-80
2022/03/31 08:27:47;;;;;;;24.03;18.70;;;9.00;1.00;9.30;98658.00;;;;5000458;28;20459;-82
2022/03/31 08:30:21;;;;;;;25.50;18.80;;;9.10;1.00;9.20;98664.00;;;;4998809;28;20454;-81
2022/03/31 08:32:50;;;;;;;26.23;17.77;;;9.10;1.00;9.30;98659.00;;;;4999350;28;20585;-82
2022/03/31 08:35:20;;;;;;;23.83;17.43;;;9.10;1.00;9.40;98657.00;;;;4999987;28;20470;-81
2022/03/31 08:37:48;;;;;;;22.87;17.90;;;9.20;1.00;9.50;98658.00;;;;4999591;28;20448;-80
2022/03/31 08:40:17;;;;;;;24.90;19.30;;;9.30;1.00;9.50;98657.00;;;;4999336;28;20446;-82
2022/03/31 08:42:46;;;;;;;23.00;16.93;;;9.30;1.00;9.40;98663.00;;;;5003982;28;20523;-80
2022/03/31 08:45:17;;;;;;;22.37;17.33;;;9.30;1.00;9.50;98673.00;;;;4996449;28;20487;-80
2022/03/31 08:47:49;;;;;;;23.60;17.23;;;9.40;1.00;9.50;98652.00;;;;5002595;28;20453;-82
2022/03/31 08:50:22;;;;;;;24.20;18.60;;;9.30;1.00;9.60;98672.00;;;;5006118;28;20458;-81
2022/03/31 08:52:52;;;;;;;24.10;19.27;;;9.40;1.00;9.60;98664.00;;;;5016108;28;20434;-80
2022/03/31 08:55:21;;;;;;;26.70;19.00;;;9.50;1.00;9.80;98670.00;;;;5000558;28;20482;-81
2022/03/31 08:57:51;;;;;;;26.70;19.83;;;9.50;1.00;10.00;98665.00;;;;5000336;28;20480;-80
2022/03/31 09:00:23;;;;;;;22.17;18.40;;;9.80;1.00;10.10;98655.00;;;;5002331;28;20469;-81
2022/03/31 09:03:00;;;;;;;23.83;17.33;;;9.90;1.00;10.20;98655.00;;;;5001465;28;20463;-81
2022/03/31 09:05:37;;;;;;;25.83;18.67;;;10.00;1.00;10.30;98650.00;;;;4997960;28;20481;-81
2022/03/31 09:08:09;;;;;;;24.30;18.43;;;10.10;1.00;10.40;98636.00;;;;4997159;28;22516;-80
2022/03/31 09:10:44;;;;;;;25.33;19.83;;;10.20;1.00;10.50;98643.00;;;;4999731;28;20457;-81
2022/03/31 09:13:22;;;;;;;21.93;18.50;;;10.30;1.00;10.40;98644.00;;;;4998882;28;20504;-81
2022/03/31 09:15:54;;;;;;;22.07;17.70;;;10.30;1.00;10.50;98646.00;;;;4996916;28;20494;-80
2022/03/31 09:18:24;;;;;;;22.77;18.20;;;10.40;1.00;10.60;98637.00;;;;4997074;28;20512;-81
2022/03/31 09:20:58;;;;;;;22.10;17.40;;;10.50;1.00;10.70;98654.00;;;;5003893;28;20446;-81
2022/03/31 09:23:29;;;;;;;22.00;18.23;;;10.60;1.00;10.40;98647.00;;;;5004827;28;20456;-80
2022/03/31 09:26:08;;;;;;;21.93;17.90;;;10.40;1.00;10.40;98651.00;;;;5007927;28;20485;-80
2022/03/31 09:28:37;;;;;;;23.63;19.57;;;10.30;1.00;10.40;98649.00;;;;5005134;28;20491;-79
2022/03/31 09:31:08;;;;;;;23.07;17.97;;;10.30;1.00;10.50;98652.00;;;;5006708;28;20459;-82
2022/03/31 09:33:39;;;;;;;23.43;18.13;;;10.40;1.00;10.40;98647.00;;;;4998288;28;20492;-79
2022/03/31 09:36:13;;;;;;;24.67;17.90;;;10.30;1.00;10.60;98636.00;;;;4994819;28;20490;-81
2022/03/31 09:38:52;;;;;;;22.53;18.90;;;10.40;1.00;10.80;98640.00;;;;4995023;28;20468;-79
2022/03/31 09:41:24;;;;;;;20.10;16.93;;;10.50;1.00;10.90;98643.00;;;;4991324;28;20482;-79
2022/03/31 09:43:54;;;;;;;23.53;19.57;;;10.80;1.00;11.00;98634.00;;;;4993137;28;20462;-79
2022/03/31 09:46:25;;;;;;;25.23;19.20;;;11.00;1.00;11.20;98637.00;;;;4994242;28;20477;-78
2022/03/31 09:49:00;;;;;;;23.57;18.70;;;11.00;1.00;11.20;98636.00;;;;4999347;28;20486;-78
2022/03/31 09:51:29;;;;;;;23.10;18.70;;;11.00;1.00;11.50;98638.00;;;;4999400;28;20511;-78
2022/03/31 09:53:58;;;;;;;24.23;18.40;;;11.20;1.00;11.70;98636.00;;;;5001549;28;20453;-79
2022/03/31 09:56:26;;;;;;;22.80;18.83;;;11.50;1.00;11.90;98639.00;;;;5005934;28;20491;-79
2022/03/31 09:59:00;;;;;;;20.27;17.67;;;11.90;1.00;12.20;98630.00;;;;4999786;28;20457;-79
2022/03/31 10:01:30;;;;;;;21.70;19.27;;;11.90;1.00;12.20;98636.00;;;;4998351;28;20978;-78
2022/03/31 10:03:59;;;;;;;24.80;19.23;;;12.10;1.00;12.20;98625.00;;;;4997526;28;20446;-78
2022/03/31 10:06:29;;;;;;;23.27;19.40;;;12.10;1.00;12.10;98627.00;;;;4991998;28;20526;-78
2022/03/31 10:08:57;;;;;;;22.70;18.93;;;12.00;1.00;12.20;98640.00;;;;4995962;28;20462;-79
2022/03/31 10:11:28;;;;;;;23.00;19.63;;;12.10;1.00;12.10;98637.00;;;;4999655;28;20466;-79
2022/03/31 10:14:15;;;;;;;23.23;20.07;;;12.20;1.00;12.00;98631.00;;;;4983304;28;20511;-80
2022/03/31 10:16:50;;;;;;;22.30;17.90;;;11.90;1.00;12.10;98626.00;;;;4996991;28;20529;-80
2022/03/31 10:19:31;;;;;;;22.77;19.03;;;12.00;1.00;11.80;98619.00;;;;5000587;28;20477;-79
2022/03/31 10:25:02;;;;;;;25.60;19.57;;;11.80;1.00;11.70;98619.00;;;;5003276;28;20480;-81
2022/03/31 10:27:33;;;;;;;25.93;19.43;;;11.60;1.00;11.80;98619.00;;;;5004468;28;20485;-80
2022/03/31 10:30:15;;;;;;;24.60;18.93;;;11.60;1.00;11.80;98621.00;;;;5002500;28;20784;-81
2022/03/31 10:32:55;;;;;;;23.47;19.63;;;11.60;1.00;11.60;98624.00;;;;5001343;28;20537;-79
2022/03/31 10:35:27;;;;;;;25.97;19.67;;;11.60;1.00;11.50;98615.00;;;;5002287;28;20540;-80
2022/03/31 10:37:58;;;;;;;25.47;20.00;;;11.40;1.00;11.50;98613.00;;;;5003413;28;20445;-81
2022/03/31 10:40:34;;;;;;;23.43;19.93;;;11.40;1.00;11.50;98605.00;;;;5004252;28;20446;-81
2022/03/31 10:43:03;;;;;;;23.33;18.80;;;11.40;1.00;11.50;98598.00;;;;5004157;28;20464;-81
2022/03/31 10:45:37;;;;;;;25.00;20.63;;;11.40;1.00;11.60;98610.00;;;;4985823;28;21196;-81
2022/03/31 10:48:18;;;;;;;23.47;19.00;;;11.40;1.00;11.80;98599.00;;;;5002760;28;21178;-80
2022/03/31 10:51:00;;;;;;;23.90;18.97;;;11.60;1.00;11.90;98599.00;;;;5003105;28;20480;-80
2022/03/31 10:53:31;;;;;;;22.37;18.10;;;11.80;1.00;11.60;98601.00;;;;5003848;28;20457;-80
2022/03/31 10:56:03;;;;;;;22.33;18.20;;;11.50;1.00;11.90;98590.00;;;;5002233;28;20466;-80
2022/03/31 10:58:33;;;;;;;23.03;19.23;;;11.70;1.00;12.00;98588.00;;;;5006833;28;20446;-80
2022/03/31 11:01:05;;;;;;;24.40;18.47;;;11.80;1.00;12.10;98589.00;;;;5006345;28;20453;-81
2022/03/31 11:03:34;;;;;;;22.90;20.07;;;11.90;1.00;12.30;98584.00;;;;5007181;28;20462;-80
2022/03/31 11:06:08;;;;;;;20.60;18.40;;;12.10;1.00;12.40;98573.00;;;;5004086;28;20478;-81
2022/03/31 11:08:43;;;;;;;21.37;17.80;;;12.20;1.00;12.40;98595.00;;;;5001271;28;20465;-81
2022/03/31 11:11:20;;;;;;;20.07;16.53;;;12.40;1.00;12.30;98580.00;;;;5004612;28;20454;-80
2022/03/31 11:13:49;;;;;;;23.60;18.90;;;12.30;1.00;11.90;98574.00;;;;5002766;28;20472;-80
2022/03/31 11:16:18;;;;;;;23.90;19.03;;;11.90;1.00;12.00;98421.00;;;;5002899;28;20497;-79
2022/03/31 11:18:55;;;;;;;22.20;19.00;;;12.00;1.00;12.00;98433.00;;;;5002817;28;20458;-79